sensor_id;sensor_type;location;lat;lon;timestamp;P1;P2;P0
21358;PMS7003;13506;50.852;20.632;2023-08-12T00:00:03;33.20;30.40;20.80
21358;PMS7003;13506;50.852;20.632;2023-08-12T00:02:58;31.40;28.60;19.40
21358;PMS7003;13506;50.852;20.632;2023-08-12T00:05:27;31.60;29.60;19.20
21358;PMS7003;13506;50.852;20.632;2023-08-12T00:07:55;31.40;29.20;18.40
21358;PMS7003;13506;50.852;20.632;2023-08-12T00:10:23;34.20;30.40;19.00
21358;PMS7003;13506;50.852;20.632;2023-08-12T00:12:52;32.60;28.80;18.00
21358;PMS7003;13506;50.852;20.632;2023-08-12T00:15:19;27.60;27.00;17.20
21358;PMS7003;13506;50.852;20.632;2023-08-12T00:17:48;29.40;28.40;17.80
21358;PMS7003;13506;50.852;20.632;2023-08-12T00:20:17;29.00;26.60;19.20
21358;PMS7003;13506;50.852;20.632;2023-08-12T00:22:46;36.40;32.80;22.40
21358;PMS7003;13506;50.852;20.632;2023-08-12T00:25:14;35.80;31.40;20.80
21358;PMS7003;13506;50.852;20.632;2023-08-12T00:27:43;33.80;29.20;20.60
21358;PMS7003;13506;50.852;20.632;2023-08-12T00:30:11;36.20;33.60;23.00
21358;PMS7003;13506;50.852;20.632;2023-08-12T00:32:39;36.60;32.80;21.80
21358;PMS7003;13506;50.852;20.632;2023-08-12T00:35:07;41.60;33.00;20.80
21358;PMS7003;13506;50.852;20.632;2023-08-12T00:37:37;33.20;28.00;18.20
21358;PMS7003;13506;50.852;20.632;2023-08-12T00:40:05;31.00;27.20;17.60
21358;PMS7003;13506;50.852;20.632;2023-08-12T00:42:34;36.60;31.80;20.80
21358;PMS7003;13506;50.852;20.632;2023-08-12T00:45:02;35.60;31.00;21.60
21358;PMS7003;13506;50.852;20.632;2023-08-12T00:47:36;33.60;29.20;18.00
21358;PMS7003;13506;50.852;20.632;2023-08-12T00:50:06;31.80;28.00;20.00
21358;PMS7003;13506;50.852;20.632;2023-08-12T00:52:35;30.60;28.60;18.60
21358;PMS7003;13506;50.852;20.632;2023-08-12T00:55:05;31.80;27.20;18.20
21358;PMS7003;13506;50.852;20.632;2023-08-12T00:57:34;30.60;24.20;17.60
21358;PMS7003;13506;50.852;20.632;2023-08-12T01:00:03;31.00;23.00;16.00
21358;PMS7003;13506;50.852;20.632;2023-08-12T01:02:33;28.60;27.80;16.80
21358;PMS7003;13506;50.852;20.632;2023-08-12T01:05:03;30.80;28.40;17.00
21358;PMS7003;13506;50.852;20.632;2023-08-12T01:07:32;25.60;24.20;16.00
21358;PMS7003;13506;50.852;20.632;2023-08-12T01:10:01;31.60;28.20;17.00
21358;PMS7003;13506;50.852;20.632;2023-08-12T01:12:32;24.60;22.60;15.60
21358;PMS7003;13506;50.852;20.632;2023-08-12T01:15:05;30.00;25.20;17.60
21358;PMS7003;13506;50.852;20.632;2023-08-12T01:17:38;27.00;25.20;15.60
21358;PMS7003;13506;50.852;20.632;2023-08-12T01:20:09;28.60;23.40;14.40
21358;PMS7003;13506;50.852;20.632;2023-08-12T01:22:41;21.00;19.60;12.20
21358;PMS7003;13506;50.852;20.632;2023-08-12T01:25:14;23.80;23.80;15.80
21358;PMS7003;13506;50.852;20.632;2023-08-12T01:27:42;23.40;23.20;13.80
21358;PMS7003;13506;50.852;20.632;2023-08-12T01:30:11;23.60;21.00;13.80
21358;PMS7003;13506;50.852;20.632;2023-08-12T01:32:41;21.80;20.20;12.20
21358;PMS7003;13506;50.852;20.632;2023-08-12T01:35:17;21.20;19.60;14.40
21358;PMS7003;13506;50.852;20.632;2023-08-12T01:37:49;21.20;19.80;13.20
21358;PMS7003;13506;50.852;20.632;2023-08-12T01:40:22;23.20;18.80;12.60
21358;PMS7003;13506;50.852;20.632;2023-08-12T01:42:53;25.20;21.00;12.00
21358;PMS7003;13506;50.852;20.632;2023-08-12T01:45:21;22.40;19.40;13.20
21358;PMS7003;13506;50.852;20.632;2023-08-12T01:47:50;25.40;21.80;14.20
21358;PMS7003;13506;50.852;20.632;2023-08-12T01:50:18;21.00;20.60;13.80
21358;PMS7003;13506;50.852;20.632;2023-08-12T01:52:47;26.40;22.00;14.20
21358;PMS7003;13506;50.852;20.632;2023-08-12T01:55:15;23.40;21.20;14.60
21358;PMS7003;13506;50.852;20.632;2023-08-12T01:57:45;22.20;20.80;13.00
21358;PMS7003;13506;50.852;20.632;2023-08-12T02:00:14;21.00;20.20;13.80
21358;PMS7003;13506;50.852;20.632;2023-08-12T02:02:43;24.80;23.00;15.80
21358;PMS7003;13506;50.852;20.632;2023-08-12T02:05:12;23.80;22.00;13.80
21358;PMS7003;13506;50.852;20.632;2023-08-12T02:07:40;23.00;21.00;13.60
21358;PMS7003;13506;50.852;20.632;2023-08-12T02:10:09;25.20;19.20;11.80
21358;PMS7003;13506;50.852;20.632;2023-08-12T02:12:37;21.80;20.00;12.80
21358;PMS7003;13506;50.852;20.632;2023-08-12T02:15:07;21.40;19.40;11.20
21358;PMS7003;13506;50.852;20.632;2023-08-12T02:17:36;26.80;22.20;14.00
21358;PMS7003;13506;50.852;20.632;2023-08-12T02:20:04;22.80;21.60;12.80
21358;PMS7003;13506;50.852;20.632;2023-08-12T02:22:33;18.00;18.00;11.80
21358;PMS7003;13506;50.852;20.632;2023-08-12T02:25:02;21.00;19.20;13.60
21358;PMS7003;13506;50.852;20.632;2023-08-12T02:27:30;23.80;21.40;12.40
21358;PMS7003;13506;50.852;20.632;2023-08-12T02:29:58;22.80;21.20;12.40
21358;PMS7003;13506;50.852;20.632;2023-08-12T02:32:28;20.20;19.20;12.20
21358;PMS7003;13506;50.852;20.632;2023-08-12T02:34:56;19.40;19.40;13.20
21358;PMS7003;13506;50.852;20.632;2023-08-12T02:37:24;18.00;17.40;12.00
21358;PMS7003;13506;50.852;20.632;2023-08-12T02:39:52;23.00;22.20;13.20
21358;PMS7003;13506;50.852;20.632;2023-08-12T02:42:21;22.00;19.00;11.20
21358;PMS7003;13506;50.852;20.632;2023-08-12T02:44:49;22.80;20.00;12.60
21358;PMS7003;13506;50.852;20.632;2023-08-12T02:47:17;21.20;18.20;11.00
21358;PMS7003;13506;50.852;20.632;2023-08-12T02:49:47;21.20;19.60;12.40
21358;PMS7003;13506;50.852;20.632;2023-08-12T02:52:15;19.80;19.80;12.60
21358;PMS7003;13506;50.852;20.632;2023-08-12T02:54:44;18.40;15.60;10.00
21358;PMS7003;13506;50.852;20.632;2023-08-12T02:57:12;22.40;19.60;13.40
21358;PMS7003;13506;50.852;20.632;2023-08-12T02:59:40;20.40;19.40;11.60
21358;PMS7003;13506;50.852;20.632;2023-08-12T03:02:08;18.60;18.20;12.60
21358;PMS7003;13506;50.852;20.632;2023-08-12T03:04:36;21.40;20.80;13.00
21358;PMS7003;13506;50.852;20.632;2023-08-12T03:07:06;22.40;20.60;11.60
21358;PMS7003;13506;50.852;20.632;2023-08-12T03:09:34;21.40;18.00;10.80
21358;PMS7003;13506;50.852;20.632;2023-08-12T03:12:03;23.20;19.60;11.80
21358;PMS7003;13506;50.852;20.632;2023-08-12T03:14:31;21.80;20.00;12.00
21358;PMS7003;13506;50.852;20.632;2023-08-12T03:17:01;19.20;19.20;12.20
21358;PMS7003;13506;50.852;20.632;2023-08-12T03:19:31;22.40;19.20;13.60
21358;PMS7003;13506;50.852;20.632;2023-08-12T03:21:59;24.60;20.20;13.00
21358;PMS7003;13506;50.852;20.632;2023-08-12T03:24:30;19.60;19.60;11.20
21358;PMS7003;13506;50.852;20.632;2023-08-12T03:26:59;22.60;18.80;12.20
21358;PMS7003;13506;50.852;20.632;2023-08-12T03:29:29;24.60;22.20;14.40
21358;PMS7003;13506;50.852;20.632;2023-08-12T03:31:59;20.80;18.80;13.80
21358;PMS7003;13506;50.852;20.632;2023-08-12T03:34:27;19.20;16.40;9.80
21358;PMS7003;13506;50.852;20.632;2023-08-12T03:36:57;16.80;16.80;9.20
21358;PMS7003;13506;50.852;20.632;2023-08-12T03:39:25;20.00;18.80;13.00
21358;PMS7003;13506;50.852;20.632;2023-08-12T03:41:55;18.00;16.60;10.20
21358;PMS7003;13506;50.852;20.632;2023-08-12T03:44:23;20.20;19.20;12.20
21358;PMS7003;13506;50.852;20.632;2023-08-12T03:46:52;20.40;18.40;12.00
21358;PMS7003;13506;50.852;20.632;2023-08-12T03:49:20;21.20;19.60;13.20
21358;PMS7003;13506;50.852;20.632;2023-08-12T03:51:49;19.00;17.40;10.40
21358;PMS7003;13506;50.852;20.632;2023-08-12T03:54:17;20.60;18.00;13.20
21358;PMS7003;13506;50.852;20.632;2023-08-12T03:56:45;17.60;15.80;10.80
21358;PMS7003;13506;50.852;20.632;2023-08-12T03:59:15;16.80;16.60;10.20
21358;PMS7003;13506;50.852;20.632;2023-08-12T04:01:43;18.00;17.20;10.80
21358;PMS7003;13506;50.852;20.632;2023-08-12T04:04:11;18.60;17.20;11.60
21358;PMS7003;13506;50.852;20.632;2023-08-12T04:06:39;16.80;16.20;10.60
21358;PMS7003;13506;50.852;20.632;2023-08-12T04:09:07;17.80;16.00;9.00
21358;PMS7003;13506;50.852;20.632;2023-08-12T04:11:36;21.60;17.20;11.40
21358;PMS7003;13506;50.852;20.632;2023-08-12T04:14:04;18.60;14.60;9.00
21358;PMS7003;13506;50.852;20.632;2023-08-12T04:16:33;15.80;14.60;9.80
21358;PMS7003;13506;50.852;20.632;2023-08-12T04:19:02;17.60;16.80;10.60
21358;PMS7003;13506;50.852;20.632;2023-08-12T04:21:30;16.80;15.20;10.60
21358;PMS7003;13506;50.852;20.632;2023-08-12T04:23:59;21.80;17.20;10.20
21358;PMS7003;13506;50.852;20.632;2023-08-12T04:26:28;19.60;17.40;11.00
21358;PMS7003;13506;50.852;20.632;2023-08-12T04:28:56;15.80;14.40;9.80
21358;PMS7003;13506;50.852;20.632;2023-08-12T04:31:25;16.40;14.20;9.80
21358;PMS7003;13506;50.852;20.632;2023-08-12T04:33:54;18.00;16.60;9.80
21358;PMS7003;13506;50.852;20.632;2023-08-12T04:36:24;17.00;16.60;10.00
21358;PMS7003;13506;50.852;20.632;2023-08-12T04:38:53;17.40;17.00;10.40
21358;PMS7003;13506;50.852;20.632;2023-08-12T04:41:22;18.00;17.20;9.40
21358;PMS7003;13506;50.852;20.632;2023-08-12T04:43:52;19.20;18.40;11.00
21358;PMS7003;13506;50.852;20.632;2023-08-12T04:46:23;19.00;16.80;9.60
21358;PMS7003;13506;50.852;20.632;2023-08-12T04:48:51;21.20;17.60;9.80
21358;PMS7003;13506;50.852;20.632;2023-08-12T04:51:20;20.40;16.40;10.20
21358;PMS7003;13506;50.852;20.632;2023-08-12T04:53:49;18.40;17.80;11.20
21358;PMS7003;13506;50.852;20.632;2023-08-12T04:56:17;18.80;16.80;10.60
21358;PMS7003;13506;50.852;20.632;2023-08-12T04:58:45;18.00;16.20;9.80
21358;PMS7003;13506;50.852;20.632;2023-08-12T05:01:13;19.20;18.60;12.00
21358;PMS7003;13506;50.852;20.632;2023-08-12T05:03:42;18.60;13.80;9.20
21358;PMS7003;13506;50.852;20.632;2023-08-12T05:06:10;15.60;15.00;10.20
21358;PMS7003;13506;50.852;20.632;2023-08-12T05:08:39;15.60;14.40;8.80
21358;PMS7003;13506;50.852;20.632;2023-08-12T05:11:08;12.80;12.80;8.40
21358;PMS7003;13506;50.852;20.632;2023-08-12T05:13:36;16.80;15.40;10.60
21358;PMS7003;13506;50.852;20.632;2023-08-12T05:16:04;16.60;15.80;9.00
21358;PMS7003;13506;50.852;20.632;2023-08-12T05:18:32;11.20;11.20;7.20
21358;PMS7003;13506;50.852;20.632;2023-08-12T05:21:00;13.60;11.00;7.20
21358;PMS7003;13506;50.852;20.632;2023-08-12T05:23:28;12.20;12.20;7.00
21358;PMS7003;13506;50.852;20.632;2023-08-12T05:25:58;10.00;10.00;6.40
21358;PMS7003;13506;50.852;20.632;2023-08-12T05:28:26;9.00;9.00;5.00
21358;PMS7003;13506;50.852;20.632;2023-08-12T05:30:54;10.80;10.80;6.80
21358;PMS7003;13506;50.852;20.632;2023-08-12T05:33:22;12.00;11.40;7.20
21358;PMS7003;13506;50.852;20.632;2023-08-12T05:35:51;10.40;10.20;5.00
21358;PMS7003;13506;50.852;20.632;2023-08-12T05:38:18;12.75;11.25;6.25
21358;PMS7003;13506;50.852;20.632;2023-08-12T05:40:47;14.20;11.40;6.80
21358;PMS7003;13506;50.852;20.632;2023-08-12T05:43:16;11.60;11.40;7.00
21358;PMS7003;13506;50.852;20.632;2023-08-12T05:45:44;12.20;9.20;6.00
21358;PMS7003;13506;50.852;20.632;2023-08-12T05:48:13;10.00;10.00;6.00
21358;PMS7003;13506;50.852;20.632;2023-08-12T05:50:41;13.20;11.60;6.00
21358;PMS7003;13506;50.852;20.632;2023-08-12T05:53:09;9.80;9.80;6.40
21358;PMS7003;13506;50.852;20.632;2023-08-12T05:55:37;11.20;11.20;5.60
21358;PMS7003;13506;50.852;20.632;2023-08-12T05:58:05;12.60;11.80;7.00
21358;PMS7003;13506;50.852;20.632;2023-08-12T06:00:35;12.20;12.20;7.00
21358;PMS7003;13506;50.852;20.632;2023-08-12T06:03:04;11.40;10.60;5.40
21358;PMS7003;13506;50.852;20.632;2023-08-12T06:05:32;11.60;10.00;6.40
21358;PMS7003;13506;50.852;20.632;2023-08-12T06:08:00;12.40;11.80;6.00
21358;PMS7003;13506;50.852;20.632;2023-08-12T06:10:29;11.40;10.00;6.00
21358;PMS7003;13506;50.852;20.632;2023-08-12T06:12:56;13.00;10.40;6.00
21358;PMS7003;13506;50.852;20.632;2023-08-12T06:15:25;9.40;9.00;6.00
21358;PMS7003;13506;50.852;20.632;2023-08-12T06:17:54;9.40;9.00;4.80
21358;PMS7003;13506;50.852;20.632;2023-08-12T06:20:22;7.60;7.60;4.60
21358;PMS7003;13506;50.852;20.632;2023-08-12T06:22:51;11.00;9.40;6.00
21358;PMS7003;13506;50.852;20.632;2023-08-12T06:25:19;12.40;10.00;6.00
21358;PMS7003;13506;50.852;20.632;2023-08-12T06:27:47;10.60;9.80;6.60
21358;PMS7003;13506;50.852;20.632;2023-08-12T06:30:16;10.40;10.40;6.00
21358;PMS7003;13506;50.852;20.632;2023-08-12T06:32:44;8.80;8.40;5.00
21358;PMS7003;13506;50.852;20.632;2023-08-12T06:35:14;10.20;9.20;5.20
21358;PMS7003;13506;50.852;20.632;2023-08-12T06:37:42;10.00;10.00;6.40
21358;PMS7003;13506;50.852;20.632;2023-08-12T06:40:10;12.00;11.80;6.00
21358;PMS7003;13506;50.852;20.632;2023-08-12T06:42:38;9.80;8.80;5.00
21358;PMS7003;13506;50.852;20.632;2023-08-12T06:45:07;9.60;9.60;6.20
21358;PMS7003;13506;50.852;20.632;2023-08-12T06:47:35;10.20;10.20;5.80
21358;PMS7003;13506;50.852;20.632;2023-08-12T06:50:05;10.40;10.00;6.00
21358;PMS7003;13506;50.852;20.632;2023-08-12T06:52:35;9.40;9.00;6.00
21358;PMS7003;13506;50.852;20.632;2023-08-12T06:55:04;7.60;7.60;4.80
21358;PMS7003;13506;50.852;20.632;2023-08-12T06:57:32;10.00;9.00;6.00
21358;PMS7003;13506;50.852;20.632;2023-08-12T07:00:00;10.20;9.60;5.80
21358;PMS7003;13506;50.852;20.632;2023-08-12T07:02:28;9.40;7.80;4.40
21358;PMS7003;13506;50.852;20.632;2023-08-12T07:04:56;8.80;8.00;4.00
21358;PMS7003;13506;50.852;20.632;2023-08-12T07:07:24;9.40;8.60;4.80
21358;PMS7003;13506;50.852;20.632;2023-08-12T07:09:54;10.80;8.40;5.80
21358;PMS7003;13506;50.852;20.632;2023-08-12T07:12:22;10.80;9.80;6.40
21358;PMS7003;13506;50.852;20.632;2023-08-12T07:14:51;7.80;7.80;5.20
21358;PMS7003;13506;50.852;20.632;2023-08-12T07:17:19;11.00;9.60;6.00
21358;PMS7003;13506;50.852;20.632;2023-08-12T07:19:48;7.20;6.20;4.00
21358;PMS7003;13506;50.852;20.632;2023-08-12T07:22:16;6.40;6.40;3.00
21358;PMS7003;13506;50.852;20.632;2023-08-12T07:24:46;6.60;5.80;3.60
21358;PMS7003;13506;50.852;20.632;2023-08-12T07:27:15;10.00;8.00;4.40
21358;PMS7003;13506;50.852;20.632;2023-08-12T07:29:44;6.20;6.20;3.60
21358;PMS7003;13506;50.852;20.632;2023-08-12T07:32:13;8.20;7.60;4.00
21358;PMS7003;13506;50.852;20.632;2023-08-12T07:34:41;6.80;6.80;4.00
21358;PMS7003;13506;50.852;20.632;2023-08-12T07:37:09;8.80;8.00;5.00
21358;PMS7003;13506;50.852;20.632;2023-08-12T07:39:38;7.80;6.60;4.00
21358;PMS7003;13506;50.852;20.632;2023-08-12T07:42:06;7.00;6.80;4.00
21358;PMS7003;13506;50.852;20.632;2023-08-12T07:44:36;8.00;6.80;3.00
21358;PMS7003;13506;50.852;20.632;2023-08-12T07:47:04;7.40;6.80;3.40
21358;PMS7003;13506;50.852;20.632;2023-08-12T07:49:32;8.40;8.40;5.40
21358;PMS7003;13506;50.852;20.632;2023-08-12T07:52:00;8.00;8.00;4.00
21358;PMS7003;13506;50.852;20.632;2023-08-12T07:54:29;9.20;7.60;4.20
21358;PMS7003;13506;50.852;20.632;2023-08-12T07:56:57;11.40;10.00;6.00
21358;PMS7003;13506;50.852;20.632;2023-08-12T07:59:25;22.00;20.75;13.00
21358;PMS7003;13506;50.852;20.632;2023-08-12T08:01:55;20.25;18.00;10.00
21358;PMS7003;13506;50.852;20.632;2023-08-12T08:04:23;12.60;11.60;7.40
21358;PMS7003;13506;50.852;20.632;2023-08-12T08:06:51;8.20;8.20;5.20
21358;PMS7003;13506;50.852;20.632;2023-08-12T08:09:19;9.00;8.80;5.40
21358;PMS7003;13506;50.852;20.632;2023-08-12T08:11:47;7.60;7.60;4.60
21358;PMS7003;13506;50.852;20.632;2023-08-12T08:14:15;9.00;8.00;4.80
21358;PMS7003;13506;50.852;20.632;2023-08-12T08:16:43;10.80;8.80;5.00
21358;PMS7003;13506;50.852;20.632;2023-08-12T08:19:13;9.00;8.40;4.80
21358;PMS7003;13506;50.852;20.632;2023-08-12T08:21:41;9.60;8.20;5.20
21358;PMS7003;13506;50.852;20.632;2023-08-12T08:24:09;8.50;8.50;5.00
21358;PMS7003;13506;50.852;20.632;2023-08-12T08:26:38;8.25;8.25;5.50
21358;PMS7003;13506;50.852;20.632;2023-08-12T08:29:07;9.75;9.75;5.25
21358;PMS7003;13506;50.852;20.632;2023-08-12T08:31:35;9.00;7.75;4.25
21358;PMS7003;13506;50.852;20.632;2023-08-12T08:34:03;8.50;8.50;4.75
21358;PMS7003;13506;50.852;20.632;2023-08-12T08:36:33;8.00;7.00;4.00
21358;PMS7003;13506;50.852;20.632;2023-08-12T08:39:01;8.00;8.00;5.00
21358;PMS7003;13506;50.852;20.632;2023-08-12T08:41:30;6.00;6.00;4.00
21358;PMS7003;13506;50.852;20.632;2023-08-12T08:44:02;7.40;7.20;4.20
21358;PMS7003;13506;50.852;20.632;2023-08-12T08:46:34;9.00;8.00;5.00
21358;PMS7003;13506;50.852;20.632;2023-08-12T08:49:02;10.00;7.60;4.00
21358;PMS7003;13506;50.852;20.632;2023-08-12T08:51:34;6.50;6.50;3.50
21358;PMS7003;13506;50.852;20.632;2023-08-12T08:54:03;9.25;8.00;5.00
21358;PMS7003;13506;50.852;20.632;2023-08-12T08:56:32;11.25;10.75;6.00
21358;PMS7003;13506;50.852;20.632;2023-08-12T08:59:01;8.75;8.75;4.75
21358;PMS7003;13506;50.852;20.632;2023-08-12T09:01:29;9.00;7.20;5.00
21358;PMS7003;13506;50.852;20.632;2023-08-12T09:03:59;9.00;9.00;5.50
21358;PMS7003;13506;50.852;20.632;2023-08-12T09:06:29;12.25;11.50;7.25
21358;PMS7003;13506;50.852;20.632;2023-08-12T09:09:00;9.75;9.00;6.00
21358;PMS7003;13506;50.852;20.632;2023-08-12T09:11:29;12.75;12.75;7.75
21358;PMS7003;13506;50.852;20.632;2023-08-12T09:13:57;21.25;19.00;12.50
21358;PMS7003;13506;50.852;20.632;2023-08-12T09:16:26;19.50;17.50;12.00
21358;PMS7003;13506;50.852;20.632;2023-08-12T09:18:55;8.80;8.80;5.60
21358;PMS7003;13506;50.852;20.632;2023-08-12T09:21:23;12.00;9.75;6.00
21358;PMS7003;13506;50.852;20.632;2023-08-12T09:23:51;8.25;8.25;5.50
21358;PMS7003;13506;50.852;20.632;2023-08-12T09:26:21;9.00;8.00;5.00
21358;PMS7003;13506;50.852;20.632;2023-08-12T09:28:49;8.00;8.00;5.00
21358;PMS7003;13506;50.852;20.632;2023-08-12T09:31:23;9.50;8.75;5.00
21358;PMS7003;13506;50.852;20.632;2023-08-12T09:33:54;8.25;8.25;5.00
21358;PMS7003;13506;50.852;20.632;2023-08-12T09:36:27;9.00;8.00;5.50
21358;PMS7003;13506;50.852;20.632;2023-08-12T09:38:56;7.00;7.00;5.00
21358;PMS7003;13506;50.852;20.632;2023-08-12T09:41:27;7.25;7.25;4.00
21358;PMS7003;13506;50.852;20.632;2023-08-12T09:43:55;8.75;8.00;5.00
21358;PMS7003;13506;50.852;20.632;2023-08-12T09:46:24;8.50;8.50;4.00
21358;PMS7003;13506;50.852;20.632;2023-08-12T09:48:53;10.50;10.50;6.00
21358;PMS7003;13506;50.852;20.632;2023-08-12T09:51:21;10.25;8.75;5.00
21358;PMS7003;13506;50.852;20.632;2023-08-12T09:53:49;10.00;9.50;6.50
21358;PMS7003;13506;50.852;20.632;2023-08-12T09:56:19;11.00;10.50;6.75
21358;PMS7003;13506;50.852;20.632;2023-08-12T09:58:52;7.50;7.25;5.00
21358;PMS7003;13506;50.852;20.632;2023-08-12T10:01:22;7.00;7.00;4.25
21358;PMS7003;13506;50.852;20.632;2023-08-12T10:03:51;13.75;12.00;8.00
21358;PMS7003;13506;50.852;20.632;2023-08-12T10:06:21;11.50;9.50;5.25
21358;PMS7003;13506;50.852;20.632;2023-08-12T10:08:49;10.25;9.50;7.00
21358;PMS7003;13506;50.852;20.632;2023-08-12T10:11:18;9.00;9.00;6.00
21358;PMS7003;13506;50.852;20.632;2023-08-12T10:13:47;9.00;8.00;5.50
21358;PMS7003;13506;50.852;20.632;2023-08-12T10:16:16;8.75;8.50;5.25
21358;PMS7003;13506;50.852;20.632;2023-08-12T10:18:44;8.50;8.50;4.25
21358;PMS7003;13506;50.852;20.632;2023-08-12T10:21:14;9.25;9.25;5.75
21358;PMS7003;13506;50.852;20.632;2023-08-12T10:23:43;9.00;9.00;6.00
21358;PMS7003;13506;50.852;20.632;2023-08-12T10:26:12;10.00;9.25;5.50
21358;PMS7003;13506;50.852;20.632;2023-08-12T10:28:42;9.00;8.50;5.75
21358;PMS7003;13506;50.852;20.632;2023-08-12T10:31:10;9.50;9.00;5.00
21358;PMS7003;13506;50.852;20.632;2023-08-12T10:33:40;9.75;9.75;6.00
21358;PMS7003;13506;50.852;20.632;2023-08-12T10:36:09;10.00;9.50;5.75
21358;PMS7003;13506;50.852;20.632;2023-08-12T10:38:37;9.00;9.00;6.00
21358;PMS7003;13506;50.852;20.632;2023-08-12T10:41:15;10.25;9.50;6.00
21358;PMS7003;13506;50.852;20.632;2023-08-12T10:43:53;10.00;10.00;6.00
21358;PMS7003;13506;50.852;20.632;2023-08-12T10:46:23;8.00;8.00;5.00
21358;PMS7003;13506;50.852;20.632;2023-08-12T10:49:01;9.00;9.00;5.00
21358;PMS7003;13506;50.852;20.632;2023-08-12T10:51:41;9.50;9.00;6.00
21358;PMS7003;13506;50.852;20.632;2023-08-12T10:54:13;10.00;9.25;6.00
21358;PMS7003;13506;50.852;20.632;2023-08-12T10:57:06;10.25;10.25;6.00
21358;PMS7003;13506;50.852;20.632;2023-08-12T10:59:50;10.00;8.50;5.00
21358;PMS7003;13506;50.852;20.632;2023-08-12T11:02:21;9.50;9.50;5.25
21358;PMS7003;13506;50.852;20.632;2023-08-12T11:04:54;9.75;9.75;6.00
21358;PMS7003;13506;50.852;20.632;2023-08-12T11:07:28;9.75;8.50;6.00
21358;PMS7003;13506;50.852;20.632;2023-08-12T11:10:00;10.00;9.25;6.00
21358;PMS7003;13506;50.852;20.632;2023-08-12T11:12:34;10.25;10.00;6.50
21358;PMS7003;13506;50.852;20.632;2023-08-12T11:15:03;9.75;9.75;7.00
21358;PMS7003;13506;50.852;20.632;2023-08-12T11:17:32;10.50;10.00;7.25
21358;PMS7003;13506;50.852;20.632;2023-08-12T11:20:04;8.75;8.75;5.75
21358;PMS7003;13506;50.852;20.632;2023-08-12T11:22:35;10.25;9.00;5.75
21358;PMS7003;13506;50.852;20.632;2023-08-12T11:25:05;10.00;10.00;7.00
21358;PMS7003;13506;50.852;20.632;2023-08-12T11:27:36;9.00;9.00;5.00
21358;PMS7003;13506;50.852;20.632;2023-08-12T11:30:08;9.00;9.00;5.25
21358;PMS7003;13506;50.852;20.632;2023-08-12T11:32:38;9.00;9.00;5.75
21358;PMS7003;13506;50.852;20.632;2023-08-12T11:35:08;10.00;8.75;5.00
21358;PMS7003;13506;50.852;20.632;2023-08-12T11:37:38;11.25;10.25;7.00
21358;PMS7003;13506;50.852;20.632;2023-08-12T11:40:07;7.25;7.00;4.00
21358;PMS7003;13506;50.852;20.632;2023-08-12T11:42:40;11.00;11.00;6.75
21358;PMS7003;13506;50.852;20.632;2023-08-12T11:45:10;10.00;8.50;5.25
21358;PMS7003;13506;50.852;20.632;2023-08-12T11:47:40;9.00;8.00;4.00
21358;PMS7003;13506;50.852;20.632;2023-08-12T11:50:11;8.00;7.00;5.00
21358;PMS7003;13506;50.852;20.632;2023-08-12T11:52:40;8.00;8.00;5.00
21358;PMS7003;13506;50.852;20.632;2023-08-12T11:55:08;8.00;8.00;4.25
21358;PMS7003;13506;50.852;20.632;2023-08-12T11:57:38;9.75;8.00;5.25
21358;PMS7003;13506;50.852;20.632;2023-08-12T12:00:07;9.00;8.25;5.75
21358;PMS7003;13506;50.852;20.632;2023-08-12T12:02:41;13.00;8.25;5.00
21358;PMS7003;13506;50.852;20.632;2023-08-12T12:05:14;7.75;7.75;5.00
21358;PMS7003;13506;50.852;20.632;2023-08-12T12:07:43;8.00;8.00;5.00
21358;PMS7003;13506;50.852;20.632;2023-08-12T12:10:12;9.50;6.50;4.00
21358;PMS7003;13506;50.852;20.632;2023-08-12T12:12:44;9.25;8.25;5.00
21358;PMS7003;13506;50.852;20.632;2023-08-12T12:15:12;7.00;7.00;4.00
21358;PMS7003;13506;50.852;20.632;2023-08-12T12:17:41;7.00;7.00;4.25
21358;PMS7003;13506;50.852;20.632;2023-08-12T12:20:11;9.00;8.50;4.25
21358;PMS7003;13506;50.852;20.632;2023-08-12T12:22:41;7.00;7.00;4.00
21358;PMS7003;13506;50.852;20.632;2023-08-12T12:25:11;8.25;8.25;4.75
21358;PMS7003;13506;50.852;20.632;2023-08-12T12:27:43;8.25;8.00;5.00
21358;PMS7003;13506;50.852;20.632;2023-08-12T12:30:13;9.00;8.00;4.00
21358;PMS7003;13506;50.852;20.632;2023-08-12T12:32:43;9.25;8.75;6.00
21358;PMS7003;13506;50.852;20.632;2023-08-12T12:35:11;10.00;10.00;6.25
21358;PMS7003;13506;50.852;20.632;2023-08-12T12:37:41;9.00;9.00;5.50
21358;PMS7003;13506;50.852;20.632;2023-08-12T12:40:10;8.25;7.25;5.00
21358;PMS7003;13506;50.852;20.632;2023-08-12T12:42:38;9.00;8.00;4.50
21358;PMS7003;13506;50.852;20.632;2023-08-12T12:45:07;11.00;9.00;5.00
21358;PMS7003;13506;50.852;20.632;2023-08-12T12:47:36;11.00;10.00;6.00
21358;PMS7003;13506;50.852;20.632;2023-08-12T12:50:04;9.00;9.00;5.00
21358;PMS7003;13506;50.852;20.632;2023-08-12T12:52:35;10.75;8.50;5.50
21358;PMS7003;13506;50.852;20.632;2023-08-12T12:55:03;10.00;9.50;6.00
21358;PMS7003;13506;50.852;20.632;2023-08-12T12:57:32;10.25;9.00;6.25
21358;PMS7003;13506;50.852;20.632;2023-08-12T13:00:00;9.00;9.00;6.00
21358;PMS7003;13506;50.852;20.632;2023-08-12T13:02:30;8.25;8.25;5.25
21358;PMS7003;13506;50.852;20.632;2023-08-12T13:04:58;9.00;9.00;5.25
21358;PMS7003;13506;50.852;20.632;2023-08-12T13:07:26;11.25;9.75;5.50
21358;PMS7003;13506;50.852;20.632;2023-08-12T13:09:55;9.25;8.50;5.50
21358;PMS7003;13506;50.852;20.632;2023-08-12T13:12:24;9.25;8.50;5.75
21358;PMS7003;13506;50.852;20.632;2023-08-12T13:14:51;10.25;9.50;5.75
21358;PMS7003;13506;50.852;20.632;2023-08-12T13:17:19;9.00;9.00;5.25
21358;PMS7003;13506;50.852;20.632;2023-08-12T13:19:47;6.75;6.75;4.00
21358;PMS7003;13506;50.852;20.632;2023-08-12T13:22:16;8.75;7.25;4.00
21358;PMS7003;13506;50.852;20.632;2023-08-12T13:24:44;12.00;10.25;6.00
21358;PMS7003;13506;50.852;20.632;2023-08-12T13:27:13;11.00;9.00;6.75
21358;PMS7003;13506;50.852;20.632;2023-08-12T13:29:42;9.00;7.75;4.75
21358;PMS7003;13506;50.852;20.632;2023-08-12T13:32:11;9.75;9.75;6.00
21358;PMS7003;13506;50.852;20.632;2023-08-12T13:34:38;8.50;7.25;4.50
21358;PMS7003;13506;50.852;20.632;2023-08-12T13:37:08;9.25;9.00;4.25
21358;PMS7003;13506;50.852;20.632;2023-08-12T13:39:37;20.25;16.25;10.00
21358;PMS7003;13506;50.852;20.632;2023-08-12T13:42:06;23.00;21.25;12.50
21358;PMS7003;13506;50.852;20.632;2023-08-12T13:44:35;15.00;13.00;9.25
21358;PMS7003;13506;50.852;20.632;2023-08-12T13:47:04;8.00;7.75;5.00
21358;PMS7003;13506;50.852;20.632;2023-08-12T13:49:32;11.00;11.00;7.25
21358;PMS7003;13506;50.852;20.632;2023-08-12T13:52:00;10.75;9.00;6.00
21358;PMS7003;13506;50.852;20.632;2023-08-12T13:54:28;9.25;9.00;6.25
21358;PMS7003;13506;50.852;20.632;2023-08-12T13:56:56;7.25;7.00;4.00
21358;PMS7003;13506;50.852;20.632;2023-08-12T13:59:26;8.00;7.50;5.00
21358;PMS7003;13506;50.852;20.632;2023-08-12T14:01:55;11.00;9.00;5.25